Time;durP1;ratioP1;P1;durP2;ratioP2;P2;SDS_P1;SDS_P2;PMS_P1;PMS_P2;Temp;Humidity;BMP_temperature;BMP_pressure;BME280_temperature;BME280_humidity;BME280_pressure;Samples;Min_cycle;Max_cycle;Signal;HPM_P1;HPM_P2
2022/11/02 00:01:45;;;;;;;16.85;9.95;;;;;;;11.51;nan;95707.31;5009936;28;20208;-72
2022/11/02 00:04:11;;;;;;;18.15;10.38;;;;;;;11.43;nan;95704.13;5008815;28;20985;-72
2022/11/02 00:06:40;;;;;;;18.88;9.50;;;;;;;11.32;nan;95707.84;5008780;28;20227;-73
2022/11/02 00:09:07;;;;;;;15.10;9.52;;;;;;;11.12;nan;95703.28;5010482;28;20210;-71
2022/11/02 00:11:36;;;;;;;23.80;10.63;;;;;;;11.37;nan;95706.03;5009984;28;21100;-71
2022/11/02 00:14:03;;;;;;;22.40;10.07;;;;;;;11.16;nan;95699.75;5010868;28;20204;-72
2022/11/02 00:16:30;;;;;;;33.40;11.00;;;;;;;11.13;nan;95704.94;5008565;28;20224;-70
2022/11/02 00:19:00;;;;;;;13.63;9.05;;;;;;;11.17;nan;95698.88;5008884;28;20211;-71
2022/11/02 00:21:28;;;;;;;15.48;9.02;;;;;;;11.51;nan;95702.22;5007650;28;20208;-72
2022/11/02 00:23:57;;;;;;;20.25;8.93;;;;;;;11.29;nan;95705.38;5009944;28;20325;-72
2022/11/02 00:26:24;;;;;;;17.33;9.13;;;;;;;11.46;nan;95700.66;5009624;28;20642;-72
2022/11/02 00:28:53;;;;;;;23.65;10.65;;;;;;;11.39;nan;95692.34;5008686;28;20266;-71
2022/11/02 00:31:20;;;;;;;18.13;9.10;;;;;;;11.38;nan;95694.97;5006869;28;20204;-71
2022/11/02 00:33:46;;;;;;;23.52;9.43;;;;;;;11.34;nan;95699.31;5006952;28;20639;-71
2022/11/02 00:36:13;;;;;;;20.17;10.02;;;;;;;11.34;nan;95693.38;5007665;28;20200;-71
2022/11/02 00:38:40;;;;;;;23.08;9.98;;;;;;;11.25;nan;95691.91;5007440;28;20239;-72
2022/11/02 00:41:07;;;;;;;20.50;9.82;;;;;;;11.25;nan;95697.00;5006978;28;20294;-71
2022/11/02 00:43:34;;;;;;;18.55;8.80;;;;;;;11.26;nan;95691.03;5007124;28;20317;-73
2022/11/02 00:46:02;;;;;;;27.52;10.40;;;;;;;10.94;nan;95694.38;5007466;28;20207;-72
2022/11/02 00:48:29;;;;;;;13.80;9.55;;;;;;;11.10;nan;95697.41;5007573;28;20214;-72
2022/11/02 00:50:56;;;;;;;18.80;10.25;;;;;;;10.96;nan;95694.34;5008000;28;20208;-72
2022/11/02 00:53:22;;;;;;;14.02;9.23;;;;;;;11.02;nan;95692.50;5007248;28;20245;-71
2022/11/02 00:55:50;;;;;;;23.48;10.20;;;;;;;10.95;nan;95701.13;5006799;28;20241;-71
2022/11/02 00:58:16;;;;;;;16.55;9.68;;;;;;;11.21;nan;95695.41;5018524;28;20213;-73
2022/11/02 01:00:43;;;;;;;23.88;10.20;;;;;;;11.35;nan;95690.78;5026222;28;20235;-72
2022/11/02 01:03:11;;;;;;;23.98;11.68;;;;;;;11.56;nan;95700.41;5026796;28;20207;-71
2022/11/02 01:05:38;;;;;;;26.50;10.93;;;;;;;11.54;nan;95696.22;5027701;28;20288;-71
2022/11/02 01:08:05;;;;;;;29.45;12.68;;;;;;;11.29;nan;95701.13;5025742;28;20230;-72
2022/11/02 01:10:32;;;;;;;27.77;12.25;;;;;;;11.40;nan;95703.38;5026087;28;20750;-72
2022/11/02 01:13:00;;;;;;;31.70;12.95;;;;;;;11.54;nan;95697.06;5026060;28;20231;-71
2022/11/02 01:15:27;;;;;;;26.42;11.63;;;;;;;11.58;nan;95698.66;5024043;28;20340;-71
2022/11/02 01:17:54;;;;;;;19.08;10.40;;;;;;;11.68;nan;95696.66;5026205;28;20277;-71
2022/11/02 01:20:22;;;;;;;23.00;9.48;;;;;;;11.23;nan;95701.28;5025874;28;20241;-72
2022/11/02 01:22:49;;;;;;;19.38;10.15;;;;;;;10.98;nan;95702.78;5026905;28;20659;-70
2022/11/02 01:25:16;;;;;;;16.35;9.75;;;;;;;10.99;nan;95699.34;5024656;28;20335;-72
2022/11/02 01:27:43;;;;;;;15.57;9.20;;;;;;;10.74;nan;95688.94;5027733;28;20234;-72
2022/11/02 01:30:11;;;;;;;15.00;10.25;;;;;;;10.54;nan;95699.59;5027807;28;20692;-71
2022/11/02 01:32:37;;;;;;;18.75;10.00;;;;;;;10.34;nan;95694.16;5027488;28;20211;-70
2022/11/02 01:35:05;;;;;;;14.50;9.32;;;;;;;10.29;nan;95685.78;5027644;28;20203;-71
2022/11/02 01:37:34;;;;;;;16.65;9.18;;;;;;;10.46;nan;95686.22;5026088;28;20235;-72
2022/11/02 01:40:00;;;;;;;14.18;8.50;;;;;;;10.44;nan;95677.81;5027032;28;20222;-70
2022/11/02 01:42:28;;;;;;;16.38;9.63;;;;;;;10.50;nan;95675.13;5027145;28;20744;-71
2022/11/02 01:44:55;;;;;;;16.58;8.60;;;;;;;10.76;nan;95674.50;5027414;28;20230;-70
2022/11/02 01:47:26;;;;;;;16.70;9.02;;;;;;;10.94;nan;95678.28;5026464;28;20281;-71
2022/11/02 01:49:58;;;;;;;17.33;9.93;;;;;;;11.12;nan;95667.66;5027798;28;20234;-69
2022/11/02 01:52:28;;;;;;;15.77;8.95;;;;;;;11.30;nan;95672.25;5028438;28;20660;-69
2022/11/02 01:55:06;;;;;;;20.98;9.32;;;;;;;11.43;nan;95678.69;5026218;28;20794;-71
2022/11/02 01:57:35;;;;;;;17.23;9.27;;;;;;;11.52;nan;95675.91;5025479;28;20238;-73
2022/11/02 02:00:06;;;;;;;15.80;8.70;;;;;;;11.50;nan;95667.47;5027119;28;20267;-71
2022/11/02 02:02:37;;;;;;;11.68;9.13;;;;;;;11.40;nan;95666.03;5027797;28;20249;-73
2022/11/02 02:05:06;;;;;;;12.57;8.68;;;;;;;11.27;nan;95668.97;5025832;28;20281;-70
2022/11/02 02:07:35;;;;;;;16.20;9.25;;;;;;;11.22;nan;95664.00;5025967;28;20277;-71
2022/11/02 02:10:04;;;;;;;16.45;9.95;;;;;;;11.05;nan;95661.91;5026138;28;20212;-72
2022/11/02 02:12:32;;;;;;;18.13;8.98;;;;;;;11.25;nan;95664.75;5026671;28;20213;-71
2022/11/02 02:14:59;;;;;;;18.17;8.55;;;;;;;11.32;nan;95662.88;5026858;28;20280;-72
2022/11/02 02:17:38;;;;;;;16.25;9.10;;;;;;;11.06;nan;95660.19;5026798;28;20203;-72
2022/11/02 02:20:12;;;;;;;19.70;9.38;;;;;;;10.74;nan;95661.81;5028376;28;20517;-71
2022/11/02 02:23:24;;;;;;;15.18;10.10;;;;;;;10.53;nan;95664.88;5027510;28;20276;-73
2022/11/02 02:26:12;;;;;;;22.90;10.65;;;;;;;10.49;nan;95663.28;5027436;28;20255;-71
2022/11/02 02:28:46;;;;;;;18.85;9.50;;;;;;;10.48;nan;95654.81;5031423;28;20207;-71
2022/11/02 02:31:17;;;;;;;15.55;9.50;;;;;;;10.55;nan;95663.16;5030417;28;20230;-71
2022/11/02 02:33:49;;;;;;;18.15;10.35;;;;;;;10.77;nan;95661.75;5032075;28;20211;-71
2022/11/02 02:36:24;;;;;;;15.50;10.18;;;;;;;10.87;nan;95662.38;5030765;28;20296;-71
2022/11/02 02:39:02;;;;;;;19.05;9.73;;;;;;;10.88;nan;95662.34;5028714;28;20923;-73
2022/11/02 02:41:37;;;;;;;17.38;8.65;;;;;;;10.66;nan;95662.88;5029770;28;20229;-72
2022/11/02 02:44:08;;;;;;;18.33;10.02;;;;;;;10.64;nan;95668.00;5029717;28;20738;-72
2022/11/02 02:46:40;;;;;;;11.75;8.57;;;;;;;10.61;nan;95668.09;5028456;28;20677;-73
2022/11/02 02:49:11;;;;;;;17.58;9.68;;;;;;;10.63;nan;95668.91;5030810;28;20283;-73
2022/11/02 02:51:40;;;;;;;13.27;9.23;;;;;;;10.41;nan;95667.69;5030577;28;20634;-71
2022/11/02 02:54:12;;;;;;;18.70;10.70;;;;;;;10.50;nan;95659.88;5030521;28;20693;-73
2022/11/02 02:56:41;;;;;;;22.98;10.95;;;;;;;10.70;nan;95660.22;5029490;28;20292;-72
2022/11/02 02:59:16;;;;;;;16.63;10.23;;;;;;;10.73;nan;95664.41;5030292;28;20242;-72
2022/11/02 03:01:44;;;;;;;23.70;12.65;;;;;;;10.76;nan;95662.63;5028075;28;20688;-72
2022/11/02 03:04:13;;;;;;;32.38;13.07;;;;;;;10.89;nan;95669.06;5030305;28;20540;-72
2022/11/02 03:06:44;;;;;;;37.05;15.27;;;;;;;10.90;nan;95670.72;5029189;28;20231;-71
2022/11/02 03:09:19;;;;;;;36.33;15.52;;;;;;;10.89;nan;95671.59;5029625;28;20203;-71
2022/11/02 03:11:53;;;;;;;32.67;15.77;;;;;;;10.81;nan;95668.44;5029035;28;20211;-70
2022/11/02 03:14:36;;;;;;;32.83;16.17;;;;;;;10.78;nan;95671.06;5030105;28;20203;-72
2022/11/02 03:17:14;;;;;;;30.95;15.73;;;;;;;10.74;nan;95671.16;5028009;28;20284;-73
2022/11/02 03:19:49;;;;;;;26.42;15.20;;;;;;;10.65;nan;95671.38;5029518;28;20653;-74
2022/11/02 03:22:26;;;;;;;24.15;13.18;;;;;;;10.01;nan;95663.50;5028970;28;20202;-71
2022/11/02 03:24:59;;;;;;;28.80;12.98;;;;;;;9.86;nan;95672.28;5030020;28;20281;-71
2022/11/02 03:27:38;;;;;;;28.38;12.82;;;;;;;9.43;nan;95674.00;5029397;28;21877;-72
2022/11/02 03:30:10;;;;;;;29.83;12.70;;;;;;;9.21;nan;95665.97;5029556;28;20234;-71
2022/11/02 03:32:41;;;;;;;17.70;10.40;;;;;;;9.19;nan;95680.38;5029649;28;20729;-71
2022/11/02 03:35:16;;;;;;;21.15;11.43;;;;;;;9.15;nan;95677.09;5029682;28;20202;-72
2022/11/02 03:37:49;;;;;;;25.40;10.18;;;;;;;9.21;nan;95678.66;5027302;28;20695;-72
2022/11/02 03:40:21;;;;;;;19.52;10.25;;;;;;;9.42;nan;95675.69;5029995;28;20257;-73
2022/11/02 03:42:50;;;;;;;19.27;11.45;;;;;;;9.44;nan;95676.50;5028272;28;21139;-72
2022/11/02 03:45:20;;;;;;;20.23;10.85;;;;;;;9.72;nan;95671.72;5028584;28;20234;-71
2022/11/02 03:47:53;;;;;;;21.15;10.43;;;;;;;9.99;nan;95670.31;5029189;28;20269;-72
2022/11/02 03:50:23;;;;;;;27.73;10.55;;;;;;;10.09;nan;95665.88;5029502;28;20234;-71
2022/11/02 03:52:56;;;;;;;20.42;10.77;;;;;;;10.26;nan;95663.81;5028101;28;20203;-71
2022/11/02 03:55:28;;;;;;;17.45;10.07;;;;;;;10.25;nan;95676.56;5030088;28;20850;-73
2022/11/02 03:57:56;;;;;;;23.80;11.18;;;;;;;10.35;nan;95667.88;5027659;28;20305;-71
2022/11/02 04:00:26;;;;;;;20.70;12.13;;;;;;;10.25;nan;95661.31;5029773;28;20739;-72
2022/11/02 04:02:57;;;;;;;20.98;10.55;;;;;;;10.01;nan;95658.41;5029081;28;20203;-73
2022/11/02 04:05:28;;;;;;;19.55;11.00;;;;;;;10.02;nan;95657.56;5028526;28;20268;-72
2022/11/02 04:14:36;;;;;;;18.33;10.10;;;;;;;10.26;nan;95668.06;5029628;28;20218;-71
2022/11/02 04:16:13;;;;;;;18.25;10.18;;;;;;;10.31;nan;95672.19;5028550;28;20198;-71
2022/11/02 04:21:27;;;;;;;15.88;9.77;;;;;;;10.42;nan;95670.22;5002045;28;20703;-75
2022/11/02 04:26:38;;;;;;;22.63;10.98;;;;;;;10.13;nan;95662.41;5027712;28;20252;-75
2022/11/02 04:29:05;;;;;;;14.05;10.00;;;;;;;10.19;nan;95673.28;5028629;28;20199;-73
2022/11/02 04:31:33;;;;;;;20.58;10.38;;;;;;;9.98;nan;95677.97;5028076;28;20208;-71
2022/11/02 04:33:59;;;;;;;14.38;10.27;;;;;;;9.99;nan;95670.31;5027990;28;20564;-72
2022/11/02 04:36:28;;;;;;;20.20;10.88;;;;;;;9.90;nan;95673.03;5029125;28;20635;-71
2022/11/02 04:38:54;;;;;;;101.40;53.33;;;;;;;9.55;nan;95663.63;5028790;28;20234;-74
2022/11/02 04:44:07;;;;;;;24.73;12.95;;;;;;;9.69;nan;95670.94;5028865;28;20214;-73
2022/11/02 04:46:36;;;;;;;18.23;10.93;;;;;;;9.82;nan;95672.38;5026290;28;20231;-70
2022/11/02 04:49:04;;;;;;;20.60;10.88;;;;;;;9.89;nan;95669.69;5027786;28;20198;-73
2022/11/02 04:51:30;;;;;;;16.98;10.60;;;;;;;9.83;nan;95666.44;5027945;28;20211;-73
2022/11/02 04:53:58;;;;;;;13.07;10.40;;;;;;;9.62;nan;95670.25;5028041;28;20251;-72
2022/11/02 04:56:25;;;;;;;16.60;11.32;;;;;;;9.64;nan;95672.78;5025103;28;20254;-72
2022/11/02 04:58:54;;;;;;;19.88;10.75;;;;;;;9.78;nan;95670.78;5023647;28;20291;-71
2022/11/02 05:01:22;;;;;;;21.30;11.30;;;;;;;9.83;nan;95674.91;5023908;28;20261;-72
2022/11/02 05:03:51;;;;;;;20.48;12.65;;;;;;;9.80;nan;95674.94;5022640;28;20220;-72
2022/11/02 05:06:19;;;;;;;22.83;11.38;;;;;;;9.79;nan;95682.59;5022527;28;20265;-72
2022/11/02 05:08:46;;;;;;;25.33;11.73;;;;;;;9.80;nan;95677.50;5023584;28;20214;-73
2022/11/02 05:11:13;;;;;;;23.13;11.38;;;;;;;9.73;nan;95673.41;5022130;28;20207;-73
2022/11/02 05:13:41;;;;;;;20.80;11.15;;;;;;;9.77;nan;95676.72;5022994;28;20700;-73
2022/11/02 05:16:11;;;;;;;19.45;10.45;;;;;;;9.50;nan;95680.63;5025449;28;20681;-73
2022/11/02 05:18:38;;;;;;;26.15;12.20;;;;;;;9.41;nan;95681.63;5025338;28;20688;-73
2022/11/02 05:21:06;;;;;;;42.70;22.67;;;;;;;9.50;nan;95686.53;5022772;28;20211;-74
2022/11/02 05:23:33;;;;;;;50.88;25.17;;;;;;;9.75;nan;95691.13;5023816;28;20223;-71
2022/11/02 05:26:02;;;;;;;34.15;19.10;;;;;;;9.62;nan;95705.78;5022768;28;20269;-72
2022/11/02 05:28:30;;;;;;;31.17;11.77;;;;;;;9.78;nan;95698.69;5021775;28;20238;-71
2022/11/02 05:30:59;;;;;;;28.92;11.73;;;;;;;10.27;nan;95697.69;5022747;28;20673;-72
2022/11/02 05:33:27;;;;;;;31.05;15.60;;;;;;;10.62;nan;95707.88;5023998;28;20207;-72
2022/11/02 05:35:55;;;;;;;26.50;14.00;;;;;;;10.89;nan;95702.13;5022640;28;20195;-75
2022/11/02 05:38:23;;;;;;;70.82;36.15;;;;;;;11.08;nan;95701.69;5022487;28;20561;-73
2022/11/02 05:40:52;;;;;;;39.55;22.02;;;;;;;11.10;nan;95699.94;5022240;28;20230;-74
2022/11/02 05:43:19;;;;;;;30.60;17.02;;;;;;;11.22;nan;95714.88;5022581;28;20298;-74
2022/11/02 05:45:52;;;;;;;30.13;14.50;;;;;;;11.11;nan;95712.63;5021271;28;20259;-73
2022/11/02 05:48:18;;;;;;;34.80;14.60;;;;;;;11.54;nan;95717.41;5023140;28;20262;-71
2022/11/02 05:50:45;;;;;;;24.73;15.48;;;;;;;12.10;nan;95717.59;5022253;28;20215;-71
2022/11/02 05:53:12;;;;;;;39.35;18.27;;;;;;;12.79;nan;95723.13;5023041;28;20211;-70
2022/11/02 05:55:40;;;;;;;39.95;18.30;;;;;;;12.82;nan;95718.78;5022401;28;20286;-71
2022/11/02 05:58:07;;;;;;;28.25;17.60;;;;;;;13.01;nan;95718.19;5024082;28;20694;-74
2022/11/02 06:00:33;;;;;;;49.53;24.25;;;;;;;13.09;nan;95726.44;5023617;28;20215;-72
2022/11/02 06:03:00;;;;;;;49.85;29.20;;;;;;;13.05;nan;95729.97;5026463;28;20231;-73
2022/11/02 06:05:27;;;;;;;57.70;31.48;;;;;;;13.28;nan;95732.63;5026428;28;20257;-71
2022/11/02 06:07:58;;;;;;;41.97;26.02;;;;;;;13.69;nan;95726.09;5025789;28;20630;-72
2022/11/02 06:10:24;;;;;;;27.77;18.55;;;;;;;14.82;nan;95730.41;5026399;28;20211;-71
2022/11/02 06:12:56;;;;;;;30.40;15.50;;;;;;;15.20;nan;95730.56;5026450;28;20241;-74
2022/11/02 06:15:23;;;;;;;22.33;14.88;;;;;;;15.28;nan;95724.25;5024920;28;20265;-73
2022/11/02 06:17:51;;;;;;;44.40;16.05;;;;;;;15.00;nan;95728.00;5023136;28;20854;-71
2022/11/02 06:20:18;;;;;;;33.50;14.40;;;;;;;14.77;nan;95727.19;5025239;28;20290;-73
2022/11/02 06:22:45;;;;;;;37.80;14.73;;;;;;;14.69;nan;95736.88;5024808;28;20746;-74
2022/11/02 06:25:13;;;;;;;30.42;13.88;;;;;;;14.53;nan;95730.69;5026755;28;20227;-72
2022/11/02 06:27:40;;;;;;;30.25;14.82;;;;;;;14.29;nan;95730.72;5024994;28;20284;-73
2022/11/02 06:30:10;;;;;;;31.48;15.05;;;;;;;14.57;nan;95732.25;5025231;28;20203;-73
2022/11/02 06:32:36;;;;;;;44.50;14.70;;;;;;;15.67;nan;95732.91;5023168;28;20211;-69
2022/11/02 06:35:03;;;;;;;35.40;12.73;;;;;;;17.53;nan;95723.34;5023140;28;20750;-68
2022/11/02 06:37:33;;;;;;;24.15;12.55;;;;;;;18.10;nan;95725.59;5022407;28;20207;-71
2022/11/02 06:40:00;;;;;;;33.53;14.77;;;;;;;18.26;nan;95729.03;5023376;28;20282;-73
2022/11/02 06:42:27;;;;;;;18.35;12.32;;;;;;;18.42;nan;95723.91;5023918;28;20203;-72
2022/11/02 06:44:54;;;;;;;26.45;14.27;;;;;;;17.50;nan;95727.81;5023777;28;20214;-72
2022/11/02 06:47:22;;;;;;;30.48;13.63;;;;;;;16.79;nan;95727.03;5022236;28;20210;-72
2022/11/02 06:49:50;;;;;;;35.38;16.13;;;;;;;16.07;nan;95732.84;5023889;28;20405;-73
2022/11/02 06:52:17;;;;;;;28.08;16.70;;;;;;;15.14;nan;95730.81;5023315;28;20572;-72
2022/11/02 06:54:44;;;;;;;28.35;15.13;;;;;;;14.47;nan;95736.03;5024425;28;20260;-72
2022/11/02 06:57:10;;;;;;;32.00;15.70;;;;;;;14.39;nan;95730.34;5039740;28;20235;-72
2022/11/02 06:59:37;;;;;;;25.13;13.75;;;;;;;15.04;nan;95729.53;5043391;28;21013;-73
2022/11/02 07:02:04;;;;;;;24.17;15.05;;;;;;;15.65;nan;95732.97;5042020;28;20692;-73
2022/11/02 07:04:32;;;;;;;37.95;17.33;;;;;;;16.00;nan;95718.63;5041582;28;21435;-72
2022/11/02 07:06:59;;;;;;;30.27;16.00;;;;;;;15.93;nan;95718.06;5041024;28;20249;-72
2022/11/02 07:09:26;;;;;;;27.85;15.75;;;;;;;16.02;nan;95727.09;5041090;28;20268;-71
2022/11/02 07:11:53;;;;;;;32.88;16.52;;;;;;;16.09;nan;95718.22;5041849;28;20225;-73
2022/11/02 07:14:20;;;;;;;35.80;16.83;;;;;;;16.88;nan;95724.00;5040300;28;20662;-72
2022/11/02 07:16:48;;;;;;;42.22;20.15;;;;;;;17.76;nan;95713.69;5039320;28;22396;-75
2022/11/02 07:19:14;;;;;;;37.25;18.75;;;;;;;17.58;nan;95716.22;5038567;28;20334;-71
2022/11/02 07:21:43;;;;;;;34.95;17.02;;;;;;;18.22;nan;95714.66;5037561;28;20207;-73
2022/11/02 07:24:09;;;;;;;51.25;19.45;;;;;;;18.32;nan;95708.94;5038470;28;20273;-71
2022/11/02 07:26:36;;;;;;;38.95;20.17;;;;;;;18.28;nan;95714.34;5042292;28;20670;-72
2022/11/02 07:29:03;;;;;;;40.65;20.10;;;;;;;17.89;nan;95717.25;5040876;28;20663;-71
2022/11/02 07:31:31;;;;;;;45.72;25.85;;;;;;;18.71;nan;95714.63;5044489;28;20218;-74
2022/11/02 07:33:58;;;;;;;50.55;22.52;;;;;;;20.07;nan;95705.84;5043630;28;20289;-73
2022/11/02 07:36:24;;;;;;;43.63;23.48;;;;;;;20.71;nan;95696.72;5043960;28;20199;-73
2022/11/02 07:38:52;;;;;;;33.20;18.27;;;;;;;21.29;nan;95703.31;5044254;28;20213;-71
2022/11/02 07:41:19;;;;;;;36.88;18.52;;;;;;;20.73;nan;95694.88;5045124;28;20242;-72
2022/11/02 07:43:46;;;;;;;35.80;19.23;;;;;;;20.03;nan;95705.22;5038788;28;20234;-74
2022/11/02 07:46:13;;;;;;;34.08;19.92;;;;;;;19.63;nan;95704.16;5040786;28;20260;-72
2022/11/02 07:48:39;;;;;;;42.60;21.20;;;;;;;19.15;nan;95707.81;5042090;28;20202;-72
2022/11/02 07:51:07;;;;;;;37.85;18.10;;;;;;;19.75;nan;95694.06;5039551;28;20681;-71
2022/11/02 07:53:34;;;;;;;40.67;19.50;;;;;;;19.95;nan;95701.44;5042045;28;21156;-72
2022/11/02 07:56:02;;;;;;;43.95;21.42;;;;;;;18.89;nan;95698.97;5040376;28;20314;-72
2022/11/02 07:58:29;;;;;;;39.17;20.02;;;;;;;19.73;nan;95695.91;5041954;28;20325;-72
2022/11/02 08:00:58;;;;;;;46.92;20.13;;;;;;;20.90;nan;95692.03;5040005;28;20214;-73
2022/11/02 08:03:26;;;;;;;38.13;18.75;;;;;;;22.88;nan;95682.88;5043571;28;20786;-74
2022/11/02 08:05:53;;;;;;;32.85;17.92;;;;;;;24.24;nan;95676.09;5041734;28;20230;-71
2022/11/02 08:08:22;;;;;;;43.20;18.85;;;;;;;26.74;nan;95671.78;5040120;28;20249;-72
2022/11/02 08:10:51;;;;;;;41.55;19.10;;;;;;;28.07;nan;95664.00;5040445;28;20203;-71
2022/11/02 08:13:21;;;;;;;43.72;18.30;;;;;;;28.87;nan;95657.28;5038194;28;20207;-71
2022/11/02 08:15:49;;;;;;;34.40;17.20;;;;;;;31.30;nan;95663.03;5037831;28;20288;-71
2022/11/02 08:18:23;;;;;;;41.80;17.15;;;;;;;31.05;nan;95659.53;5039824;28;20222;-73
2022/11/02 08:20:54;;;;;;;35.10;16.50;;;;;;;31.46;nan;95647.25;5041000;28;20287;-76
2022/11/02 08:23:21;;;;;;;30.38;16.85;;;;;;;31.63;nan;95647.25;5040297;28;20214;-75
2022/11/02 08:25:49;;;;;;;35.58;17.08;;;;;;;32.80;nan;95639.47;5040669;28;20246;-74
2022/11/02 08:28:18;;;;;;;36.55;17.05;;;;;;;32.60;nan;95633.00;5039959;28;20275;-72
2022/11/02 08:30:46;;;;;;;30.17;16.08;;;;;;;32.03;nan;95641.09;5037005;28;20194;-73
2022/11/02 08:33:15;;;;;;;51.28;18.55;;;;;;;31.93;nan;95643.09;5038910;28;20213;-72
2022/11/02 08:35:43;;;;;;;38.35;17.85;;;;;;;31.77;nan;95629.00;5038547;28;20230;-72
2022/11/02 08:38:10;;;;;;;35.65;17.17;;;;;;;31.33;nan;95646.94;5037975;28;20624;-72
2022/11/02 08:40:37;;;;;;;36.10;17.73;;;;;;;31.22;nan;95643.81;5036427;28;20199;-73
2022/11/02 08:43:06;;;;;;;37.28;17.02;;;;;;;30.69;nan;95637.16;5041481;28;20210;-71
2022/11/02 08:45:35;;;;;;;37.58;16.67;;;;;;;30.37;nan;95632.63;5039463;28;20230;-72
2022/11/02 08:48:03;;;;;;;30.58;16.55;;;;;;;30.96;nan;95629.00;5040070;28;20304;-71
2022/11/02 08:50:30;;;;;;;38.40;16.45;;;;;;;31.60;nan;95624.75;5041068;28;20206;-71
2022/11/02 08:52:57;;;;;;;38.33;16.38;;;;;;;31.58;nan;95629.34;5040737;28;20340;-71
2022/11/02 08:55:23;;;;;;;37.83;16.73;;;;;;;31.38;nan;95630.69;5038993;28;21986;-72
2022/11/02 08:57:51;;;;;;;29.40;16.17;;;;;;;31.52;nan;95619.50;5038413;28;20267;-72
2022/11/02 09:00:21;;;;;;;32.10;16.30;;;;;;;31.01;nan;95623.25;5040054;28;20268;-72
2022/11/02 09:02:59;;;;;;;34.83;16.55;;;;;;;30.82;nan;95621.78;5040257;28;20284;-73
2022/11/02 09:05:28;;;;;;;58.55;17.30;;;;;;;29.86;nan;95613.38;5040469;28;20214;-72
2022/11/02 09:07:56;;;;;;;26.27;16.05;;;;;;;28.74;nan;95620.97;5041875;28;20526;-71
2022/11/02 09:10:23;;;;;;;40.97;17.30;;;;;;;29.63;nan;95620.13;5040387;28;20209;-71
2022/11/02 09:12:50;;;;;;;37.58;16.85;;;;;;;28.32;nan;95610.25;5038493;28;20348;-72
2022/11/02 09:15:17;;;;;;;32.55;15.63;;;;;;;28.85;nan;95612.13;5040109;28;20945;-73
2022/11/02 09:17:46;;;;;;;38.55;17.50;;;;;;;28.89;nan;95612.66;5039751;28;20203;-72
2022/11/02 09:20:13;;;;;;;26.85;15.77;;;;;;;29.21;nan;95599.81;5042009;28;20214;-73
2022/11/02 09:22:41;;;;;;;37.25;17.25;;;;;;;29.51;nan;95603.00;5038780;28;20766;-72
2022/11/02 09:25:09;;;;;;;38.55;17.65;;;;;;;29.08;nan;95602.03;5039060;28;20258;-72
2022/11/02 09:27:35;;;;;;;33.97;16.90;;;;;;;28.07;nan;95596.06;5040290;28;20303;-71
2022/11/02 09:30:03;;;;;;;26.65;15.02;;;;;;;27.49;nan;95600.63;5038744;28;20206;-70
2022/11/02 09:32:32;;;;;;;28.95;15.40;;;;;;;27.62;nan;95595.16;5038452;28;20198;-73
2022/11/02 09:34:59;;;;;;;39.28;16.02;;;;;;;26.99;nan;95595.63;5040044;28;20213;-71
2022/11/02 09:37:25;;;;;;;30.17;15.25;;;;;;;25.57;nan;95588.97;5038772;28;20986;-70
2022/11/02 09:39:54;;;;;;;27.45;14.40;;;;;;;24.90;nan;95591.94;5036770;28;20256;-72
2022/11/02 09:42:25;;;;;;;28.60;14.00;;;;;;;24.21;nan;95583.66;5039308;28;20688;-73
2022/11/02 09:44:58;;;;;;;36.58;16.02;;;;;;;24.00;nan;95580.16;5041928;28;21079;-71
2022/11/02 09:47:27;;;;;;;30.25;15.07;;;;;;;23.77;nan;95578.50;5038362;28;20805;-71
2022/11/02 09:49:56;;;;;;;27.77;16.67;;;;;;;23.90;nan;95568.84;5037694;28;20621;-71
2022/11/02 09:52:31;;;;;;;35.03;14.80;;;;;;;23.90;nan;95566.25;5039812;28;20211;-72
2022/11/02 09:55:02;;;;;;;23.63;14.00;;;;;;;23.99;nan;95566.38;5039308;28;20260;-72
2022/11/02 09:57:31;;;;;;;30.33;14.82;;;;;;;24.02;nan;95563.50;5039793;28;20261;-71
2022/11/02 09:59:59;;;;;;;28.38;14.07;;;;;;;24.06;nan;95557.13;5040302;28;20361;-72
2022/11/02 10:02:47;;;;;;;32.70;14.82;;;;;;;24.06;nan;95553.69;5036835;28;20214;-72
2022/11/02 10:05:32;;;;;;;32.75;14.63;;;;;;;23.93;nan;95553.03;5037849;28;20221;-72
2022/11/02 10:08:34;;;;;;;38.28;15.35;;;;;;;23.86;nan;95542.28;5039480;28;20237;-73
2022/11/02 10:11:15;;;;;;;30.45;15.35;;;;;;;23.71;nan;95549.53;4945180;28;20687;-72
2022/11/02 10:13:52;;;;;;;26.17;14.30;;;;;;;23.91;nan;95534.16;5029782;28;20214;-71
2022/11/02 10:16:21;;;;;;;31.02;14.02;;;;;;;23.97;nan;95534.50;5036961;28;20206;-73
2022/11/02 10:19:03;;;;;;;44.50;14.73;;;;;;;24.04;nan;95537.41;5038569;28;20245;-73
2022/11/02 10:21:33;;;;;;;31.38;14.15;;;;;;;24.15;nan;95526.19;5039753;28;20280;-71
2022/11/02 10:24:15;;;;;;;41.10;16.60;;;;;;;24.21;nan;95531.72;5035901;28;20343;-72
2022/11/02 10:26:44;;;;;;;34.42;13.70;;;;;;;24.15;nan;95521.00;5040295;28;20226;-71
2022/11/02 10:29:17;;;;;;;32.00;14.65;;;;;;;23.92;nan;95525.41;5039947;28;20214;-72
2022/11/02 10:31:44;;;;;;;32.08;13.75;;;;;;;23.89;nan;95518.69;5037652;28;20295;-71
2022/11/02 10:34:22;;;;;;;37.88;13.30;;;;;;;24.10;nan;95518.75;5039375;28;20208;-71
2022/11/02 10:37:01;;;;;;;34.35;13.90;;;;;;;24.27;nan;95514.84;5039001;28;20199;-73
2022/11/02 10:39:38;;;;;;;38.25;14.75;;;;;;;24.34;nan;95506.44;5038689;28;20210;-72
2022/11/02 10:42:26;;;;;;;36.80;15.07;;;;;;;24.45;nan;95497.78;5037506;28;20236;-73
2022/11/02 10:45:07;;;;;;;40.25;23.17;;;;;;;24.68;nan;95498.50;5034930;28;20210;-72
2022/11/02 10:47:40;;;;;;;34.10;18.77;;;;;;;24.80;nan;95494.84;5039894;28;20526;-71
2022/11/02 10:50:39;;;;;;;40.60;14.57;;;;;;;24.66;nan;95500.38;5041764;28;20743;-73
2022/11/02 10:53:13;;;;;;;26.38;15.32;;;;;;;24.62;nan;95489.41;5021191;28;20203;-72
2022/11/02 10:55:49;;;;;;;25.05;9.18;;;;;;;24.40;nan;95487.75;5040237;28;20314;-72
2022/11/02 10:58:21;;;;;;;17.70;9.57;;;;;;;24.46;nan;95477.81;5042134;28;20260;-72
2022/11/02 11:00:48;;;;;;;23.02;12.55;;;;;;;24.57;nan;95485.53;5041323;28;20275;-72
2022/11/02 11:03:16;;;;;;;19.98;10.73;;;;;;;24.58;nan;95471.59;5038850;28;20207;-72
2022/11/02 11:05:57;;;;;;;20.45;8.60;;;;;;;24.53;nan;95463.34;5039340;28;20207;-71
2022/11/02 11:08:36;;;;;;;20.13;8.10;;;;;;;24.64;nan;95460.69;5040297;28;20821;-73
2022/11/02 11:11:19;;;;;;;22.85;6.80;;;;;;;24.71;nan;95467.88;5041061;28;20238;-71
2022/11/02 11:13:58;;;;;;;34.92;12.70;;;;;;;24.83;nan;95460.00;5039988;28;20202;-72
2022/11/02 11:16:37;;;;;;;21.25;8.18;;;;;;;24.88;nan;95452.63;5039755;28;20268;-72
2022/11/02 11:19:07;;;;;;;19.15;7.13;;;;;;;24.99;nan;95458.59;5041542;28;20288;-71
2022/11/02 11:21:39;;;;;;;18.80;6.95;;;;;;;24.98;nan;95454.38;5040656;28;20320;-71
2022/11/02 11:24:28;;;;;;;12.80;5.45;;;;;;;24.92;nan;95439.25;5041353;28;20211;-71
2022/11/02 11:27:15;;;;;;;25.55;5.93;;;;;;;24.87;nan;95436.22;5034600;28;20230;-71
2022/11/02 11:29:47;;;;;;;18.00;6.20;;;;;;;24.91;nan;95432.41;5041327;28;20642;-70
2022/11/02 11:32:17;;;;;;;14.77;5.53;;;;;;;24.96;nan;95437.25;5039463;28;20210;-71
2022/11/02 11:34:50;;;;;;;10.15;4.30;;;;;;;24.82;nan;95432.34;5037365;28;20740;-72
2022/11/02 11:37:17;;;;;;;14.30;5.38;;;;;;;24.79;nan;95437.78;5037238;28;20218;-71
2022/11/02 11:39:50;;;;;;;15.80;4.55;;;;;;;24.76;nan;95421.50;5040691;28;20642;-72
2022/11/02 11:42:19;;;;;;;21.80;6.60;;;;;;;24.83;nan;95424.41;5039442;28;20268;-72
2022/11/02 11:44:57;;;;;;;15.57;5.45;;;;;;;24.85;nan;95419.91;5039669;28;20275;-72
2022/11/02 11:47:30;;;;;;;16.40;5.10;;;;;;;24.93;nan;95417.50;5039497;28;21207;-72
2022/11/02 11:50:01;;;;;;;18.67;8.55;;;;;;;25.03;nan;95417.56;5042566;28;20268;-72
2022/11/02 11:52:30;;;;;;;13.00;4.80;;;;;;;25.09;nan;95407.47;5040195;28;20249;-73
2022/11/02 11:54:58;;;;;;;13.25;4.30;;;;;;;25.13;nan;95410.63;5039454;28;20211;-71
2022/11/02 11:57:29;;;;;;;7.30;4.13;;;;;;;25.14;nan;95408.84;5040762;28;21000;-72
2022/11/02 12:00:00;;;;;;;21.00;13.82;;;;;;;25.12;nan;95398.56;5039526;28;20493;-72
2022/11/02 12:02:29;;;;;;;12.40;7.43;;;;;;;25.16;nan;95399.13;5038959;28;20207;-72
2022/11/02 12:05:01;;;;;;;19.35;4.05;;;;;;;25.13;nan;95399.41;5040339;28;20211;-71